Latest Weather Observations for Macquarie Island

IDT60801

Issued at 6:32 pm EST Saturday 18 April 2015 (issued every 30 minutes, with the page automatically refreshed every 10 minutes)

About weather observations | Map of weather stations | Latest weather observations for TAS | Other Formats
Station Details ID: 300004 Name: MACQUARIE ISLAND Lat: -54.50 Lon: 158.94 Height: 6.0 m
Data from the previous 72 hours. | See also: Recent months at Macquarie Island
Date/Time
EST
Temp
°C
App
Temp
°C
Dew
Point
Rel
Hum
%
Delta-T
°C
Wind Press
QNH
hPa
Press
MSL
hPa
Rain
since 9 am
mm
Dir
 
Spd
km/h
Gust
km/h
Spd
kts
Gust
kts
18/06:30pm 7.2 -2.4 6.3 94 0.4 NNW 46 54 25 29 988.7 - 2.2
18/05:30pm 7.3 -1.9 6.2 93 0.5 NNW 44 50 24 27 988.4 - 1.4
18/05:00pm 7.5 -2.8 6.4 93 0.5 NNW 50 56 27 30 987.8 - 1.2
18/04:30pm 8.0 -3.6 6.8 92 0.6 NNW 57 67 31 36 987.3 - 1.2
18/04:00pm 8.4 -4.3 7.0 91 0.7 NNW 63 74 34 40 986.9 - 1.2
18/03:30pm 8.3 -4.7 7.1 92 0.6 NNW 65 76 35 41 986.9 - 1.2
18/03:00pm 8.1 -4.6 6.9 92 0.6 NNW 63 74 34 40 987.2 - 1.2
18/02:30pm 8.3 -5.1 7.1 92 0.6 NNW 67 78 36 42 987.1 - 1.0
18/02:00pm 8.4 -5.0 7.0 91 0.7 NNW 67 78 36 42 987.4 - 1.0
18/01:30pm 8.5 -5.3 7.1 91 0.7 NNW 69 83 37 45 987.3 - 1.0
18/01:00pm 8.6 -5.2 7.2 91 0.7 NNW 69 82 37 44 987.4 - 1.0
18/12:30pm 8.3 -5.1 7.1 92 0.6 NNW 67 80 36 43 987.6 - 1.0
18/12:01pm 8.3 -5.1 7.1 92 0.6 NNW 67 78 36 42 987.9 - 0.8
18/11:30am 8.3 -5.5 7.1 92 0.6 NNW 69 85 37 46 987.9 - 0.6
18/11:26am 8.4 -5.0 7.2 92 0.6 NNW 67 85 36 46 987.8 - 0.4
18/11:00am 8.5 -5.3 7.0 90 0.7 NNW 69 82 37 44 988.0 - 0.2
18/10:30am 8.6 -5.2 7.1 90 0.7 NNW 69 80 37 43 987.8 - 0.2
18/10:00am 8.6 -5.8 7.1 90 0.7 NNW 72 89 39 48 987.6 - 0.2
18/09:30am 8.4 -5.6 7.0 91 0.7 NNW 70 83 38 45 987.6 - 0.2
18/09:14am 8.4 -5.4 7.0 91 0.7 NNW 69 87 37 47 987.8 - 0.0
18/09:00am 8.6 -6.5 7.1 90 0.7 NNW 76 91 41 49 987.6 987.9 4.0
18/08:30am 8.5 -6.3 7.0 90 0.7 NNW 74 96 40 52 987.4 - 3.8
18/08:26am 8.6 -6.5 7.2 91 0.7 NNW 76 96 41 52 987.3 - 3.8
18/08:00am 8.6 -6.1 7.1 90 0.7 NNW 74 89 40 48 987.1 - 3.8
18/07:30am 8.4 -6.4 7.0 91 0.7 NNW 74 89 40 48 987.0 - 3.8
18/07:00am 8.5 -6.2 7.1 91 0.7 NNW 74 91 40 49 986.8 - 3.8
18/06:30am 8.4 -6.0 7.0 91 0.7 NNW 72 91 39 49 986.4 - 3.8
18/06:24am 8.6 -5.7 7.2 91 0.7 NNW 72 91 39 49 986.3 - 3.8
18/06:00am 8.4 -5.6 7.0 91 0.7 NNW 70 87 38 47 986.2 986.5 3.8
18/05:41am 8.4 -6.0 7.0 91 0.7 NNW 72 91 39 49 986.0 - 3.8
18/05:30am 8.5 -6.2 7.1 91 0.7 NNW 74 87 40 47 985.8 - 3.8
18/05:09am 8.4 -6.0 7.0 91 0.7 NNW 72 91 39 49 985.7 - 3.8
18/05:00am 8.6 -6.5 7.2 91 0.7 NNW 76 91 41 49 985.5 - 3.8
18/04:30am 8.4 -6.7 7.0 91 0.7 NNW 76 95 41 51 985.5 - 3.8
18/04:26am 8.5 -6.6 7.3 92 0.6 NNW 76 95 41 51 985.3 - 3.8
18/04:00am 8.3 -6.4 7.1 92 0.6 NNW 74 91 40 49 985.4 - 3.8
18/03:37am 8.2 -6.6 7.0 92 0.6 NNW 74 93 40 50 985.4 - 3.8
18/03:30am 8.3 -6.8 7.1 92 0.6 NNW 76 93 41 50 985.3 - 3.8
18/03:07am 8.2 -6.6 7.0 92 0.6 NNW 74 93 40 50 985.4 - 3.8
18/03:00am 8.4 -6.7 7.2 92 0.6 NNW 76 89 41 48 985.3 985.6 3.8
18/02:35am 8.4 -6.4 7.0 91 0.7 NNW 74 93 40 50 985.4 - 3.8
18/02:30am 8.5 -6.6 7.1 91 0.7 NNW 76 93 41 50 985.2 - 3.8
18/02:29am 8.5 -6.2 7.3 92 0.6 NNW 74 93 40 50 985.3 - 3.8
18/02:00am 8.2 -6.5 7.1 93 0.5 NNW 74 89 40 48 985.4 - 3.8
18/01:30am 8.1 -7.0 7.0 93 0.5 NNW 76 87 41 47 985.7 - 3.6
18/01:00am 8.1 -6.7 7.0 93 0.5 NNW 74 87 40 47 985.9 - 3.6
18/12:30am 8.1 -5.9 7.0 93 0.5 NNW 70 89 38 48 986.2 - 3.4
18/12:27am 8.0 -6.0 6.9 93 0.5 NNW 70 89 38 48 986.2 - 3.4
18/12:00am 7.9 -5.9 6.8 93 0.5 NNW 69 83 37 45 986.5 986.8 3.2
 
Date/Time
EST
Temp
°C
App
Temp
°C
Dew
Point
Rel
Hum
%
Delta-T
°C
Wind Press
QNH
hPa
Press
MSL
hPa
Rain
since 9 am
mm
Dir
 
Spd
km/h
Gust
km/h
Spd
kts
Gust
kts
17/11:52pm 7.9 -6.1 6.8 93 0.5 NNW 70 89 38 48 986.5 - 3.2
17/11:30pm 8.0 -6.0 6.9 93 0.5 NNW 70 82 38 44 986.5 - 3.0
17/11:00pm 8.0 -6.0 6.8 92 0.6 NNW 70 83 38 45 986.6 - 3.0
17/10:30pm 8.1 -5.7 6.9 92 0.6 NNW 69 85 37 46 986.6 - 3.0
17/10:00pm 8.1 -5.9 7.0 93 0.5 NNW 70 87 38 47 986.7 - 3.0
17/09:30pm 7.8 -5.7 6.6 92 0.6 NNW 67 82 36 44 987.0 - 2.6
17/09:00pm 8.0 -6.5 6.6 91 0.6 NNW 72 83 39 45 987.1 - 2.6
17/08:30pm 7.9 -6.5 6.7 92 0.6 NNW 72 87 39 47 987.1 - 2.6
17/08:00pm 7.6 -6.5 6.4 92 0.5 NNW 70 87 38 47 987.5 - 2.4
17/07:30pm 7.4 -7.5 6.2 92 0.5 NNW 74 95 40 51 987.6 - 2.2
17/07:19pm 7.3 -8.0 6.1 92 0.5 NNW 76 95 41 51 987.6 - 2.2
17/07:00pm 7.3 -8.1 5.9 91 0.6 NNW 76 87 41 47 987.6 - 2.0
17/06:41pm 7.3 -8.1 5.9 91 0.6 NNW 76 98 41 53 987.7 - 1.8
17/06:30pm 7.1 -8.0 5.6 90 0.7 NNW 74 91 40 49 988.0 - 1.6
17/06:06pm 6.9 -7.8 5.4 90 0.7 NNW 72 91 39 49 988.6 - 1.4
17/06:00pm 6.9 -7.8 5.4 90 0.7 NNW 72 87 39 47 988.9 - 1.4
17/05:39pm 6.7 -7.7 5.0 89 0.7 NNW 70 89 38 48 989.6 - 1.0
17/05:30pm 6.7 -7.7 4.9 88 0.8 NNW 70 83 38 45 989.8 - 0.8
17/05:00pm 6.4 -7.9 4.4 87 0.9 NNW 69 82 37 44 990.9 - 0.4
17/04:30pm 6.4 -6.9 3.9 84 1.1 NNW 63 80 34 43 991.8 - 0.2
17/04:00pm 6.5 -5.7 3.5 81 1.3 NNW 57 70 31 38 992.8 - 0.2
17/03:30pm 6.3 -6.5 2.6 77 1.5 NNW 59 70 32 38 993.6 - 0.2
17/03:00pm 6.1 -6.1 2.4 77 1.5 NNW 56 67 30 36 994.7 - 0.2
17/02:30pm 6.1 -5.8 2.2 76 1.6 NW 54 69 29 37 995.2 - 0.2
17/02:00pm 5.9 -4.5 2.2 77 1.5 NW 46 61 25 33 995.8 - 0.2
17/01:30pm 6.0 -5.6 1.5 73 1.8 NW 52 63 28 34 996.1 - 0.2
17/01:00pm 6.1 -4.0 1.6 73 1.8 NW 44 57 24 31 996.4 - 0.2
17/12:30pm 6.7 -4.0 2.4 74 1.8 WNW 48 59 26 32 997.0 - 0.2
17/12:09pm 6.6 -3.7 2.5 75 1.7 WNW 46 67 25 36 997.2 - 0.2
17/12:00pm 6.3 -4.0 2.6 77 1.5 WNW 46 56 25 30 997.4 - 0.2
17/11:38am 5.6 -6.0 1.9 77 1.5 WNW 52 70 28 38 997.2 - 0.2
17/11:30am 6.4 -4.8 2.1 74 1.7 WNW 50 57 27 31 997.2 - 0.2
17/11:01am 5.5 -5.9 0.5 70 1.9 WNW 50 72 27 39 997.3 - 0.0
17/11:00am 6.0 -4.9 1.3 72 1.9 WNW 48 59 26 32 997.3 - 0.0
17/10:30am 6.0 -5.3 1.0 70 2.0 WNW 50 67 27 36 997.1 - 0.0
17/10:00am 6.0 -6.2 0.3 67 2.2 WNW 54 65 29 35 996.8 - 0.0
17/09:30am 5.7 -5.6 1.1 72 1.8 WNW 50 65 27 35 996.3 - 0.0
17/09:14am 5.8 -6.2 1.5 74 1.7 WNW 54 72 29 39 996.2 - 0.0
17/09:00am 5.7 -5.6 0.9 71 1.9 WNW 50 65 27 35 996.3 996.6 5.0
17/08:50am 5.5 -4.9 1.8 77 1.5 W 46 65 25 35 996.1 - 5.0
17/08:30am 5.4 -6.7 1.0 73 1.7 W 54 69 29 37 995.7 - 5.0
17/08:04am 4.5 -6.8 1.4 80 1.2 W 50 69 27 37 995.1 - 5.0
17/08:00am 4.1 -7.2 1.5 83 1.0 W 50 63 27 34 995.1 - 5.0
17/07:34am 5.3 -7.4 0.7 72 1.8 W 57 76 31 41 994.4 - 4.4
17/07:30am 5.1 -8.0 0.5 72 1.8 W 59 76 32 41 994.5 - 4.4
17/07:00am 4.9 -9.4 0.1 71 1.8 W 65 85 35 46 993.5 - 4.4
17/06:32am 5.1 -8.7 1.0 75 1.6 W 63 82 34 44 992.6 - 4.4
17/06:30am 4.9 -9.4 0.1 71 1.8 W 65 82 35 44 992.5 - 4.4
17/06:01am 4.5 -10.4 1.0 78 1.4 W 69 91 37 49 991.3 - 4.4
17/06:00am 4.5 -10.0 1.4 80 1.2 W 67 83 36 45 991.3 991.6 4.4
17/05:30am 3.6 -12.2 1.3 85 0.9 W 74 106 40 57 990.6 - 4.4
17/05:00am 4.5 -10.9 1.9 83 1.0 W 72 96 39 52 989.2 - 4.0
17/04:30am 4.8 -10.8 2.7 86 0.9 W 74 100 40 54 987.6 - 3.8
17/04:17am 4.7 -10.9 2.7 87 0.8 W 74 98 40 53 986.9 - 3.8
17/04:00am 5.2 -7.4 3.7 90 0.6 W 59 80 32 43 985.9 - 3.6
17/03:30am 5.5 -9.0 3.8 89 0.7 WNW 69 87 37 47 984.1 - 3.4
17/03:04am 5.5 -9.9 3.8 89 0.7 WNW 74 93 40 50 983.0 - 3.4
17/03:00am 5.5 -10.3 4.0 90 0.6 WNW 76 93 41 50 982.8 983.1 3.4
17/02:30am 5.6 -10.9 4.2 91 0.6 WNW 80 100 43 54 981.3 - 3.4
17/02:00am 5.6 -10.5 4.4 92 0.5 WNW 78 98 42 53 980.3 - 3.0
17/01:30am 5.6 -11.6 3.6 87 0.8 NW 83 104 45 56 978.6 - 2.0
17/01:00am 5.5 -11.5 3.2 85 1.0 NW 82 104 44 56 978.1 - 2.0
17/12:30am 5.2 -11.8 3.2 87 0.8 NW 82 107 44 58 978.7 - 2.0
17/12:00am 5.3 -11.4 2.8 84 1.0 NW 80 109 43 59 979.8 980.1 1.6
 
Date/Time
EST
Temp
°C
App
Temp
°C
Dew
Point
Rel
Hum
%
Delta-T
°C
Wind Press
QNH
hPa
Press
MSL
hPa
Rain
since 9 am
mm
Dir
 
Spd
km/h
Gust
km/h
Spd
kts
Gust
kts
16/11:30pm 5.5 -11.8 2.7 82 1.1 NNW 83 106 45 57 980.7 - 1.6
16/11:00pm 5.8 -10.2 2.8 81 1.2 NNW 76 96 41 52 982.2 - 1.6
16/10:30pm 6.1 -10.3 2.7 79 1.4 NNW 78 102 42 55 983.1 - 1.6
16/10:00pm 6.1 -8.6 2.7 79 1.4 NW 69 89 37 48 984.4 - 1.6
16/09:30pm 6.3 -7.3 2.0 74 1.7 NW 63 87 34 47 985.2 - 1.6
16/09:00pm 6.5 -6.0 4.2 85 1.0 NNW 59 82 32 44 985.8 - 1.6
16/08:30pm 6.0 -4.1 4.0 87 0.8 NW 46 59 25 32 987.1 - 1.6
16/08:17pm 5.7 -4.4 3.7 87 0.8 NW 46 65 25 35 987.4 - 1.6
16/08:00pm 5.7 -6.1 2.7 81 1.2 NW 54 63 29 34 987.6 - 1.6
16/07:30pm 5.5 -6.9 2.8 83 1.1 WNW 57 72 31 39 988.1 - 1.6
16/07:16pm 5.4 -6.4 2.6 82 1.1 WNW 54 72 29 39 988.1 - 1.6
16/07:00pm 5.1 -7.7 2.6 84 1.0 NW 59 72 32 39 988.4 - 1.6
16/06:30pm 5.9 -5.5 5.0 94 0.4 WNW 54 63 29 34 988.0 - 1.4
16/06:14pm 6.1 -4.4 5.4 95 0.3 WNW 50 70 27 38 988.0 - 1.4
16/06:00pm 6.4 -4.1 5.7 95 0.3 WNW 50 59 27 32 988.1 - 1.4
16/05:30pm 6.6 -3.8 6.0 96 0.3 NW 50 59 27 32 988.0 - 1.4
16/05:00pm 6.8 -1.5 6.2 96 0.3 NW 39 46 21 25 988.1 - 1.2
16/04:30pm 7.0 -2.0 6.4 96 0.3 NW 43 50 23 27 988.0 - 1.0
16/04:00pm 7.3 -0.8 6.9 97 0.2 NW 39 50 21 27 988.3 - 0.6
16/03:30pm 7.4 -1.1 7.0 97 0.2 NNW 41 46 22 25 988.5 - 0.6
16/03:00pm 7.5 -1.0 7.1 97 0.2 NNW 41 48 22 26 989.0 - 0.6
16/02:30pm 7.4 -1.5 7.0 97 0.2 NNW 43 46 23 25 989.5 - 0.6
16/02:00pm 7.6 -1.2 7.2 97 0.2 NNW 43 48 23 26 990.1 - 0.6
16/01:30pm 7.5 -1.3 7.1 97 0.2 NNW 43 48 23 26 990.8 - 0.6
16/01:00pm 7.7 -1.1 7.1 96 0.3 NNW 43 48 23 26 991.4 - 0.6
16/12:30pm 7.7 -1.3 7.1 96 0.3 NNW 44 50 24 27 992.1 - 0.6
16/12:00pm 7.6 -1.8 7.0 96 0.3 NNW 46 56 25 30 992.8 - 0.4
16/11:30am 7.7 -2.5 7.1 96 0.3 N 50 59 27 32 993.4 - 0.4
16/11:00am 7.8 -2.3 7.2 96 0.3 N 50 57 27 31 994.2 - 0.4
16/10:30am 7.8 -3.1 7.2 96 0.3 N 54 61 29 33 994.9 - 0.4
16/10:22am 7.9 -2.6 7.3 96 0.3 N 52 57 28 31 995.1 - 0.4
16/10:00am 7.8 -2.0 7.2 96 0.3 N 48 56 26 30 995.8 - 0.4
16/09:30am 7.7 -1.3 7.1 96 0.3 N 44 52 24 28 996.7 - 0.2
16/09:00am 7.7 -1.7 7.1 96 0.3 N 46 54 25 29 997.6 997.9 0.6
16/08:30am 7.6 -1.8 7.0 96 0.3 N 46 52 25 28 998.4 - 0.4
16/08:00am 7.6 -1.8 7.0 96 0.3 N 46 56 25 30 999.0 - 0.4
16/07:30am 7.3 -1.8 6.7 96 0.3 NNW 44 54 24 29 999.8 - 0.4
16/07:00am 7.3 -1.6 6.7 96 0.3 NNW 43 50 23 27 1000.3 - 0.4
16/06:52am 7.3 -1.8 6.7 96 0.3 NNW 44 50 24 27 1000.4 - 0.4
16/06:30am 7.3 -1.6 6.7 96 0.3 NNW 43 50 23 27 1000.8 - 0.4
16/06:00am 7.2 -2.0 6.5 95 0.3 NNW 44 52 24 28 1001.1 1001.4 0.4
16/05:30am 7.2 -1.9 6.6 96 0.3 NNW 44 52 24 28 1001.7 - 0.4
16/05:00am 7.2 -1.8 6.5 95 0.3 NNW 43 50 23 27 1002.2 - 0.4
16/04:30am 7.1 -1.9 6.4 95 0.3 NNW 43 48 23 26 1002.8 - 0.4
16/04:00am 7.0 -2.2 6.3 95 0.3 NNW 44 50 24 27 1003.3 - 0.4
16/03:30am 7.0 -2.2 6.3 95 0.3 NNW 44 50 24 27 1003.8 - 0.4
16/03:00am 7.0 -2.1 6.1 94 0.4 NNW 43 50 23 27 1004.4 1004.7 0.2
16/02:30am 7.2 -1.9 6.1 93 0.5 NNW 43 48 23 26 1004.9 - 0.2
16/02:00am 7.4 -0.9 6.2 92 0.5 NW 39 46 21 25 1005.4 - 0.0
16/01:30am 7.3 -1.0 5.9 91 0.6 NW 39 48 21 26 1005.9 - 0.0
16/01:00am 7.4 -1.9 5.7 89 0.8 NNW 44 50 24 27 1006.2 - 0.0
16/12:30am 7.4 -0.3 5.5 88 0.8 NW 35 50 19 27 1006.6 - 0.0
16/12:00am 7.1 -1.0 5.4 89 0.8 NNW 37 43 20 23 1007.2 1007.5 0.0
 
Date/Time
EST
Temp
°C
App
Temp
°C
Dew
Point
Rel
Hum
%
Delta-T
°C
Wind Press
QNH
hPa
Press
MSL
hPa
Rain
since 9 am
mm
Dir
 
Spd
km/h
Gust
km/h
Spd
kts
Gust
kts
15/11:30pm 7.1 -2.1 5.4 89 0.8 NNW 43 48 23 26 1007.4 - 0.0
15/11:00pm 7.0 -1.1 5.3 89 0.8 NNW 37 43 20 23 1007.8 - 0.0
15/10:30pm 6.9 -1.6 5.2 89 0.7 NNW 39 43 21 23 1008.3 - 0.0
15/10:00pm 7.0 -1.9 5.3 89 0.8 NNW 41 50 22 27 1008.6 - 0.0
15/09:30pm 6.9 -2.0 5.2 89 0.7 NNW 41 46 22 25 1009.1 - 0.0
15/09:00pm 6.9 -1.5 5.4 90 0.7 NNW 39 48 21 26 1009.6 - 0.0
15/08:30pm 6.8 -2.4 5.3 90 0.7 NNW 43 50 23 27 1009.7 - 0.0
15/08:00pm 6.7 -3.1 5.3 91 0.6 NNW 46 52 25 28 1009.8 - 0.0
15/07:30pm 6.7 -2.6 5.2 90 0.7 NNW 43 50 23 27 1010.0 - 0.0
15/07:00pm 6.5 -2.0 5.3 92 0.5 NNW 39 46 21 25 1010.6 - 0.0

Other Formats:

Comma delimited format used in spreadsheet applications
http://www.bom.gov.au/fwo/IDT60801/IDT60801.94998.axf

JavaScript Object Notation format (JSON) in row-major order
http://www.bom.gov.au/fwo/IDT60801/IDT60801.94998.json